createdAt,value
2023-02-11T00:00:42.229Z,101398.78
2023-02-11T00:03:09.301Z,101400.44
2023-02-11T00:05:35.726Z,101412.69
2023-02-11T00:08:02.138Z,101393.47
2023-02-11T00:10:28.565Z,101397.81
2023-02-11T00:12:55.027Z,101396.94
2023-02-11T00:15:21.512Z,101402.19
2023-02-11T00:17:47.943Z,101390.84
2023-02-11T00:20:14.517Z,101393.50
2023-02-11T00:22:41.188Z,101381.28
2023-02-11T00:25:07.770Z,101379.53
2023-02-11T00:27:34.200Z,101383.03
2023-02-11T00:30:02.183Z,101375.16
2023-02-11T00:32:28.670Z,101396.97
2023-02-11T00:34:55.382Z,101389.97
2023-02-11T00:37:22.222Z,101390.81
2023-02-11T00:39:50.074Z,101403.88
2023-02-11T00:42:16.943Z,101393.38
2023-02-11T00:44:43.352Z,101383.78
2023-02-11T00:47:09.855Z,101388.13
2023-02-11T00:49:36.994Z,101390.75
2023-02-11T00:52:03.774Z,101388.13
2023-02-11T00:54:30.161Z,101405.63
2023-02-11T00:56:56.582Z,101405.63
2023-02-11T00:59:22.964Z,101420.47
2023-02-11T01:01:49.577Z,101423.94
2023-02-11T01:04:16.118Z,101431.78
2023-02-11T01:06:42.689Z,101415.16
2023-02-11T01:09:09.146Z,101411.66
2023-02-11T01:11:35.832Z,101394.22
2023-02-11T01:14:02.902Z,101388.97
2023-02-11T01:16:29.480Z,101381.09
2023-02-11T01:18:56.055Z,101380.22
2023-02-11T01:21:22.509Z,101386.34
2023-02-11T01:23:48.904Z,101389.00
2023-02-11T01:26:15.291Z,101385.50
2023-02-11T01:28:41.781Z,101391.63
2023-02-11T01:31:08.305Z,101387.22
2023-02-11T01:33:34.790Z,101388.09
2023-02-11T01:36:06.096Z,101385.50
2023-02-11T01:38:33.115Z,101381.06
2023-02-11T01:41:08.195Z,101379.34
2023-02-11T01:43:38.135Z,101367.94
2023-02-11T01:46:17.245Z,101369.75
2023-02-11T01:48:57.371Z,101374.16
2023-02-11T01:51:32.828Z,101367.13
2023-02-11T01:54:19.515Z,101374.09
2023-02-11T01:57:08.245Z,101379.44
2023-02-11T01:59:40.787Z,101373.25
2023-02-11T02:02:11.824Z,101368.84
2023-02-11T02:04:53.469Z,101359.25
2023-02-11T02:07:49.588Z,101361.03
2023-02-11T02:10:20.773Z,101361.84
2023-02-11T02:12:47.231Z,101355.66
2023-02-11T02:15:20.830Z,101354.84
2023-02-11T02:17:58.778Z,101341.72
2023-02-11T02:21:09.025Z,101328.63
2023-02-11T02:24:14.259Z,101334.69
2023-02-11T02:26:53.357Z,101335.56
2023-02-11T02:29:43.544Z,101340.81
2023-02-11T02:32:40.888Z,101341.75
2023-02-11T02:35:10.473Z,101338.22
2023-02-11T02:37:47.859Z,101343.53
2023-02-11T02:40:21.113Z,101347.94
2023-02-11T02:42:48.739Z,101349.66
2023-02-11T02:45:15.624Z,101351.41
2023-02-11T02:47:42.065Z,101339.16
2023-02-11T02:50:09.827Z,101348.84
2023-02-11T02:53:14.321Z,101347.09
2023-02-11T02:56:00.783Z,101357.56
2023-02-11T02:58:46.008Z,101352.31
2023-02-11T03:01:28.725Z,101342.66
2023-02-11T03:04:03.860Z,101353.94
2023-02-11T03:06:34.126Z,101340.78
2023-02-11T03:09:12.797Z,101353.97
2023-02-11T03:11:40.343Z,101349.50
2023-02-11T03:14:10.601Z,101347.75
2023-02-11T03:16:39.595Z,101335.53
2023-02-11T03:19:15.562Z,101344.34
2023-02-11T03:21:43.313Z,101335.50
2023-02-11T03:24:17.362Z,101341.63
2023-02-11T03:26:50.140Z,101338.13
2023-02-11T03:29:26.197Z,101330.28
2023-02-11T03:32:20.614Z,101331.19
2023-02-11T03:35:03.933Z,101332.94
2023-02-11T03:37:43.499Z,101322.41
2023-02-11T03:40:13.472Z,101317.13
2023-02-11T03:42:44.916Z,101323.34
2023-02-11T03:45:15.618Z,101314.63
2023-02-11T03:48:00.543Z,101319.91
2023-02-11T03:50:30.496Z,101329.53
2023-02-11T03:52:58.836Z,101340.03
2023-02-11T03:55:26.610Z,101354.88
2023-02-11T03:57:53.145Z,101356.63
2023-02-11T04:00:20.028Z,101348.75
2023-02-11T04:02:46.729Z,101336.50
2023-02-11T04:05:16.063Z,101331.28
2023-02-11T04:07:42.591Z,101335.63
2023-02-11T04:10:09.331Z,101326.00
2023-02-11T04:12:35.787Z,101327.78
2023-02-11T04:15:02.436Z,101336.56
2023-02-11T04:17:28.920Z,101333.94
2023-02-11T04:19:55.365Z,101329.56
2023-02-11T04:22:21.996Z,101321.72
2023-02-11T04:24:48.545Z,101324.31
2023-02-11T04:27:15.001Z,101320.81
2023-02-11T04:29:41.588Z,101323.41
2023-02-11T04:32:08.357Z,101318.22
2023-02-11T04:34:34.936Z,101319.91
2023-02-11T04:37:01.531Z,101322.53
2023-02-11T04:39:28.049Z,101327.75
2023-02-11T04:41:54.588Z,101336.50
2023-02-11T04:44:21.047Z,101338.22
2023-02-11T04:46:47.585Z,101339.09
2023-02-11T04:49:16.005Z,101329.44
2023-02-11T04:51:43.243Z,101326.81
2023-02-11T04:54:09.763Z,101331.22
2023-02-11T04:56:36.308Z,101345.19
2023-02-11T04:59:02.994Z,101338.22
2023-02-11T05:01:29.809Z,101339.97
2023-02-11T05:03:56.738Z,101334.78
2023-02-11T05:06:23.358Z,101342.66
2023-02-11T05:08:49.959Z,101339.16
2023-02-11T05:11:19.006Z,101333.94
2023-02-11T05:13:46.355Z,101337.41
2023-02-11T05:16:13.457Z,101336.56
2023-02-11T05:18:41.727Z,101346.22
2023-02-11T05:21:17.759Z,101339.25
2023-02-11T05:23:45.337Z,101347.06
2023-02-11T05:26:12.550Z,101341.81
2023-02-11T05:28:39.612Z,101328.72
2023-02-11T05:31:06.372Z,101326.06
2023-02-11T05:33:33.227Z,101333.97
2023-02-11T05:36:01.229Z,101337.50
2023-02-11T05:38:28.087Z,101347.09
2023-02-11T05:40:55.331Z,101339.19
2023-02-11T05:43:22.272Z,101333.94
2023-02-11T05:45:48.988Z,101330.47
2023-02-11T05:48:15.688Z,101334.81
2023-02-11T05:50:42.618Z,101334.81
2023-02-11T05:53:09.237Z,101332.22
2023-02-11T05:55:35.921Z,101327.88
2023-02-11T05:58:02.525Z,101328.72
2023-02-11T06:00:29.114Z,101325.28
2023-02-11T06:02:55.677Z,101328.75
2023-02-11T06:05:22.271Z,101331.38
2023-02-11T06:07:48.745Z,101333.13
2023-02-11T06:10:15.431Z,101327.88
2023-02-11T06:12:41.952Z,101313.88
2023-02-11T06:15:08.935Z,101324.34
2023-02-11T06:17:36.576Z,101320.84
2023-02-11T06:20:06.441Z,101327.88
2023-02-11T06:22:34.059Z,101327.88
2023-02-11T06:25:02.288Z,101332.25
2023-02-11T06:27:29.627Z,101315.63
2023-02-11T06:29:56.170Z,101330.53
2023-02-11T06:32:42.633Z,101340.16
2023-02-11T06:35:11.738Z,101337.53
2023-02-11T06:37:38.652Z,101318.25
2023-02-11T06:40:05.572Z,101332.25
2023-02-11T06:42:32.084Z,101328.72
2023-02-11T06:44:58.639Z,101321.72
2023-02-11T06:47:25.377Z,101326.06
2023-02-11T06:49:51.983Z,101325.16
2023-02-11T06:52:18.503Z,101332.19
2023-02-11T06:54:45.001Z,101347.06
2023-02-11T06:57:11.730Z,101328.66
2023-02-11T06:59:38.278Z,101326.06
2023-02-11T07:02:04.882Z,101322.53
2023-02-11T07:04:31.476Z,101317.28
2023-02-11T07:06:57.904Z,101333.03
2023-02-11T07:09:24.348Z,101331.28
2023-02-11T07:11:50.837Z,101323.41
2023-02-11T07:14:17.358Z,101317.28
2023-02-11T07:16:43.825Z,101321.63
2023-02-11T07:19:10.863Z,101324.25
2023-02-11T07:21:37.510Z,101325.97
2023-02-11T07:24:10.761Z,101324.25
2023-02-11T07:26:40.648Z,101332.97
2023-02-11T07:29:07.225Z,101338.19
2023-02-11T07:31:33.790Z,101353.06
2023-02-11T07:34:03.248Z,101356.59
2023-02-11T07:36:32.025Z,101344.34
2023-02-11T07:38:58.957Z,101355.69
2023-02-11T07:41:26.138Z,101359.22
2023-02-11T07:43:53.022Z,101363.59
2023-02-11T07:46:22.185Z,101362.72
2023-02-11T07:48:48.986Z,101363.59
2023-02-11T07:51:21.145Z,101361.88
2023-02-11T07:53:48.128Z,101357.50
2023-02-11T07:56:16.413Z,101352.28
2023-02-11T07:58:43.613Z,101358.41
2023-02-11T08:01:25.526Z,101366.34
2023-02-11T08:03:53.354Z,101361.91
2023-02-11T08:06:21.694Z,101352.34
2023-02-11T08:08:49.314Z,101365.44
2023-02-11T08:11:18.866Z,101372.47
2023-02-11T08:13:45.943Z,101368.06
2023-02-11T08:16:27.622Z,101375.97
2023-02-11T08:18:57.634Z,101378.56
2023-02-11T08:21:25.197Z,101382.94
2023-02-11T08:23:52.223Z,101366.34
2023-02-11T08:26:21.583Z,101373.31
2023-02-11T08:28:49.656Z,101372.41
2023-02-11T08:31:22.056Z,101368.06
2023-02-11T08:33:49.075Z,101366.28
2023-02-11T08:36:18.108Z,101374.09
2023-02-11T08:38:45.206Z,101373.19
2023-02-11T08:41:11.909Z,101372.28
2023-02-11T08:43:41.695Z,101372.22
2023-02-11T08:46:10.028Z,101383.53
2023-02-11T08:48:36.565Z,101386.09
2023-02-11T08:51:24.689Z,101400.09
2023-02-11T08:53:51.901Z,101403.50
2023-02-11T08:56:21.577Z,101403.50
2023-02-11T08:58:48.117Z,101399.09
2023-02-11T09:03:58.340Z,101404.31
2023-02-11T09:06:25.904Z,101418.19
2023-02-11T09:08:54.608Z,101417.31
2023-02-11T09:11:29.699Z,101416.47
2023-02-11T09:13:56.198Z,101420.78
2023-02-11T09:16:26.165Z,101426.91
2023-02-11T09:18:53.577Z,101427.72
2023-02-11T09:21:20.372Z,101435.56
2023-02-11T09:23:48.042Z,101448.63
2023-02-11T09:26:26.761Z,101455.66
2023-02-11T09:28:53.535Z,101454.69
2023-02-11T09:31:23.070Z,101457.31
2023-02-11T09:33:51.866Z,101460.81
2023-02-11T09:36:22.081Z,101457.28
2023-02-11T09:38:49.428Z,101459.88
2023-02-11T09:41:35.340Z,101459.91
2023-02-11T09:44:05.429Z,101469.44
2023-02-11T09:46:36.734Z,101480.75
2023-02-11T09:49:04.887Z,101477.28
2023-02-11T09:51:43.017Z,101485.22
2023-02-11T09:54:19.228Z,101486.94
2023-02-11T09:56:45.725Z,101493.84
2023-02-11T09:59:15.935Z,101499.09
2023-02-11T10:01:51.251Z,101495.56
2023-02-11T10:04:34.439Z,101504.34
2023-02-11T10:07:16.656Z,101501.69
2023-02-11T10:09:51.825Z,101499.88
2023-02-11T10:12:37.802Z,101509.47
2023-02-11T10:15:28.396Z,101519.06
2023-02-11T10:18:00.871Z,101518.97
2023-02-11T10:20:54.577Z,101511.13
2023-02-11T10:23:25.692Z,101522.41
2023-02-11T10:25:56.288Z,101531.13
2023-02-11T10:28:36.671Z,101538.19
2023-02-11T10:31:18.034Z,101541.59
2023-02-11T10:33:58.386Z,101544.19
2023-02-11T10:36:29.280Z,101533.63
2023-02-11T10:38:56.556Z,101526.53
2023-02-11T10:41:30.253Z,101530.88
2023-02-11T10:43:59.269Z,101534.28
2023-02-11T10:46:32.014Z,101530.78
2023-02-11T10:48:58.688Z,101536.81
2023-02-11T10:51:33.489Z,101532.34
2023-02-11T10:54:13.884Z,101519.16
2023-02-11T10:56:47.364Z,101526.97
2023-02-11T10:59:21.658Z,101532.22
2023-02-11T11:01:59.237Z,101525.16
2023-02-11T11:04:44.856Z,101534.78
2023-02-11T11:07:18.030Z,101540.81
2023-02-11T11:09:53.328Z,101542.53
2023-02-11T11:12:48.796Z,101544.22
2023-02-11T11:15:16.405Z,101536.25
2023-02-11T11:17:42.875Z,101526.56
2023-02-11T11:20:35.245Z,101526.63
2023-02-11T11:23:16.662Z,101522.19
2023-02-11T11:25:46.422Z,101512.47
2023-02-11T11:28:31.851Z,101519.50
2023-02-11T11:31:00.450Z,101525.53
2023-02-11T11:33:30.902Z,101525.53
2023-02-11T11:36:09.502Z,101527.28
2023-02-11T11:38:46.001Z,101524.63
2023-02-11T11:41:30.597Z,101523.72
2023-02-11T11:44:00.871Z,101521.88
2023-02-11T11:46:33.311Z,101507.81
2023-02-11T11:49:32.767Z,101499.00
2023-02-11T11:52:28.418Z,101506.81
2023-02-11T11:55:47.796Z,101504.91
2023-02-11T11:58:23.423Z,101503.03
2023-02-11T12:01:09.665Z,101504.66
2023-02-11T12:03:42.203Z,101501.06
2023-02-11T12:06:51.405Z,101496.66
2023-02-11T12:09:59.401Z,101485.13
2023-02-11T12:12:51.551Z,101491.22
2023-02-11T12:15:58.486Z,101497.28
2023-02-11T12:18:49.205Z,101507.69
2023-02-11T12:21:31.058Z,101501.41
2023-02-11T12:24:42.344Z,101507.56
2023-02-11T12:27:23.823Z,101503.81
2023-02-11T12:30:21.367Z,101502.00
2023-02-11T12:33:08.966Z,101504.47
2023-02-11T12:36:13.932Z,101492.97
2023-02-11T12:38:58.821Z,101495.44
2023-02-11T12:42:19.637Z,101501.50
2023-02-11T12:45:12.032Z,101502.25
2023-02-11T12:47:57.529Z,101517.06
2023-02-11T12:50:53.225Z,101518.75
2023-02-11T12:53:19.571Z,101520.41
2023-02-11T12:55:50.763Z,101516.84
2023-02-11T12:58:29.616Z,101515.97
2023-02-11T13:01:20.222Z,101506.31
2023-02-11T13:03:58.994Z,101503.66
2023-02-11T13:06:34.611Z,101518.53
2023-02-11T13:09:05.643Z,101517.63
2023-02-11T13:11:40.285Z,101529.94
2023-02-11T13:14:16.581Z,101519.31
2023-02-11T13:16:46.076Z,101529.84
2023-02-11T13:19:34.621Z,101510.59
2023-02-11T13:22:18.268Z,101500.91
2023-02-11T13:24:53.336Z,101497.34
2023-02-11T13:27:44.172Z,101499.16
2023-02-11T13:30:35.049Z,101502.56
2023-02-11T13:33:01.502Z,101508.53
2023-02-11T13:35:42.062Z,101505.94
2023-02-11T13:38:22.988Z,101511.16
2023-02-11T13:41:03.933Z,101506.66
2023-02-11T13:43:35.968Z,101510.88
2023-02-11T13:46:13.693Z,101513.34
2023-02-11T13:48:52.605Z,101503.63
2023-02-11T13:51:35.781Z,101511.28
2023-02-11T13:54:04.195Z,101516.22
2023-02-11T13:56:35.458Z,101509.91
2023-02-11T13:59:33.421Z,101514.09
2023-02-11T14:02:20.137Z,101509.41
2023-02-11T14:05:23.225Z,101495.28
2023-02-11T14:08:29.623Z,101490.69
2023-02-11T14:11:12.680Z,101497.41
2023-02-11T14:13:48.207Z,101492.00
2023-02-11T14:16:36.493Z,101494.38
2023-02-11T14:19:04.578Z,101499.56
2023-02-11T14:21:41.901Z,101497.75
2023-02-11T14:24:12.922Z,101502.91
2023-02-11T14:26:45.017Z,101498.41
2023-02-11T14:29:24.665Z,101501.06
2023-02-11T14:32:15.474Z,101502.81
2023-02-11T14:35:21.510Z,101510.63
2023-02-11T14:38:03.168Z,101506.13
2023-02-11T14:40:34.586Z,101516.56
2023-02-11T14:43:13.670Z,101513.13
2023-02-11T14:45:41.011Z,101514.75
2023-02-11T14:48:19.684Z,101516.66
2023-02-11T14:50:58.665Z,101513.94
2023-02-11T14:53:28.395Z,101514.75
2023-02-11T14:55:55.572Z,101519.06
2023-02-11T14:58:27.981Z,101510.28
2023-02-11T15:00:58.564Z,101517.31
2023-02-11T15:03:27.388Z,101514.66
2023-02-11T15:06:00.284Z,101516.47
2023-02-11T15:08:28.438Z,101520.91
2023-02-11T15:10:55.611Z,101523.59
2023-02-11T15:13:27.094Z,101521.06
2023-02-11T15:15:58.001Z,101521.16
2023-02-11T15:18:33.280Z,101528.31
2023-02-11T15:20:59.945Z,101524.78
2023-02-11T15:23:29.625Z,101534.59
2023-02-11T15:25:56.614Z,101538.09
2023-02-11T15:28:28.778Z,101540.88
2023-02-11T15:30:58.498Z,101531.31
2023-02-11T15:33:26.011Z,101547.13
2023-02-11T15:35:52.516Z,101544.53
2023-02-11T15:38:19.320Z,101551.56
2023-02-11T15:41:01.035Z,101551.72
2023-02-11T15:43:47.702Z,101553.44
2023-02-11T15:46:20.812Z,101555.13
2023-02-11T15:48:55.163Z,101550.78
2023-02-11T15:51:28.678Z,101552.50
2023-02-11T15:53:58.645Z,101556.91
2023-02-11T15:56:29.761Z,101560.44
2023-02-11T15:59:01.952Z,101568.44
2023-02-11T16:01:34.469Z,101570.19
2023-02-11T16:04:02.406Z,101576.34
2023-02-11T16:06:40.000Z,101576.44
2023-02-11T16:09:10.887Z,101573.78
2023-02-11T16:11:54.915Z,101575.66
2023-02-11T16:14:31.023Z,101577.34
2023-02-11T16:17:13.102Z,101581.00
2023-02-11T16:19:46.754Z,101578.28
2023-02-11T16:22:24.648Z,101578.34
2023-02-11T16:24:54.987Z,101578.34
2023-02-11T16:27:30.200Z,101576.59
2023-02-11T16:29:58.189Z,101582.81
2023-02-11T16:32:27.337Z,101584.63
2023-02-11T16:34:57.841Z,101592.59
2023-02-11T16:37:25.492Z,101595.25
2023-02-11T16:40:00.955Z,101590.06
2023-02-11T16:42:27.534Z,101598.81
2023-02-11T16:44:53.984Z,101603.22
2023-02-11T16:47:26.692Z,101614.72
2023-02-11T16:49:53.882Z,101616.44
2023-02-11T16:52:21.719Z,101621.75
2023-02-11T16:54:48.797Z,101617.38
2023-02-11T16:57:21.015Z,101624.47
2023-02-11T16:59:47.774Z,101619.13
2023-02-11T17:02:25.049Z,101620.13
2023-02-11T17:04:56.095Z,101622.72
2023-02-11T17:07:22.785Z,101624.47
2023-02-11T17:09:49.313Z,101627.94
2023-02-11T17:12:15.690Z,101628.88
2023-02-11T17:14:42.163Z,101622.75
2023-02-11T17:17:10.008Z,101628.03
2023-02-11T17:19:37.205Z,101621.91
2023-02-11T17:22:03.801Z,101617.56
2023-02-11T17:24:30.711Z,101624.59
2023-02-11T17:26:57.251Z,101633.41
2023-02-11T17:29:24.852Z,101632.59
2023-02-11T17:31:52.712Z,101636.09
2023-02-11T17:34:21.804Z,101634.41
2023-02-11T17:36:48.426Z,101640.53
2023-02-11T17:39:15.181Z,101639.66
2023-02-11T17:41:42.006Z,101635.25
2023-02-11T17:44:12.205Z,101635.38
2023-02-11T17:46:38.641Z,101641.44
2023-02-11T17:49:05.186Z,101645.88
2023-02-11T17:51:34.727Z,101649.41
2023-02-11T17:54:04.503Z,101647.63
2023-02-11T17:56:35.931Z,101650.31
2023-02-11T17:59:02.940Z,101657.31
2023-02-11T18:01:32.633Z,101656.41
2023-02-11T18:03:59.284Z,101661.72
2023-02-11T18:06:27.020Z,101668.72
2023-02-11T18:08:56.873Z,101664.38
2023-02-11T18:11:25.252Z,101668.72
2023-02-11T18:13:54.441Z,101672.22
2023-02-11T18:16:22.872Z,101673.16
2023-02-11T18:18:50.045Z,101668.75
2023-02-11T18:21:19.530Z,101672.31
2023-02-11T18:23:46.862Z,101677.59
2023-02-11T18:26:15.202Z,101682.91
2023-02-11T18:28:45.287Z,101682.91
2023-02-11T18:31:13.904Z,101686.44
2023-02-11T18:33:50.025Z,101680.34
2023-02-11T18:36:16.969Z,101690.81
2023-02-11T18:38:46.270Z,101686.41
2023-02-11T18:41:13.531Z,101693.44
2023-02-11T18:43:40.894Z,101693.44
2023-02-11T18:46:12.376Z,101697.84
2023-02-11T18:48:39.166Z,101690.81
2023-02-11T18:51:12.070Z,101702.31
2023-02-11T18:53:39.123Z,101701.38
2023-02-11T18:56:14.882Z,101702.34
2023-02-11T18:58:41.825Z,101704.94
2023-02-11T19:01:21.108Z,101710.31
2023-02-11T19:03:48.358Z,101719.06
2023-02-11T19:06:20.422Z,101726.16
2023-02-11T19:08:47.507Z,101731.41
2023-02-11T19:11:16.105Z,101733.22
2023-02-11T19:13:42.622Z,101738.50
2023-02-11T19:16:11.445Z,101737.63
2023-02-11T19:18:38.678Z,101754.31
2023-02-11T19:21:12.657Z,101752.63
2023-02-11T19:23:39.157Z,101755.16
2023-02-11T19:26:06.533Z,101757.78
2023-02-11T19:28:35.169Z,101756.06
2023-02-11T19:31:09.604Z,101762.28
2023-02-11T19:33:36.212Z,101763.13
2023-02-11T19:36:05.053Z,101763.13
2023-02-11T19:38:31.627Z,101763.16
2023-02-11T19:40:58.384Z,101756.22
2023-02-11T19:43:25.787Z,101756.25
2023-02-11T19:45:56.177Z,101761.56
2023-02-11T19:48:24.025Z,101759.84
2023-02-11T19:50:50.884Z,101766.06
2023-02-11T19:53:17.495Z,101764.31
2023-02-11T19:55:44.214Z,101770.50
2023-02-11T19:58:10.763Z,101775.78
2023-02-11T20:00:37.342Z,101779.38
2023-02-11T20:03:03.918Z,101782.00
2023-02-11T20:05:31.411Z,101781.16
2023-02-11T20:07:58.180Z,101790.78
2023-02-11T20:10:25.554Z,101790.81
2023-02-11T20:12:52.095Z,101789.94
2023-02-11T20:15:18.762Z,101783.81
2023-02-11T20:17:45.392Z,101774.16
2023-02-11T20:20:12.903Z,101768.06
2023-02-11T20:22:39.466Z,101767.13
2023-02-11T20:25:06.528Z,101763.69
2023-02-11T20:27:33.470Z,101768.09
2023-02-11T20:29:59.978Z,101776.00
2023-02-11T20:32:26.495Z,101766.38
2023-02-11T20:34:53.061Z,101773.41
2023-02-11T20:37:19.499Z,101774.28
2023-02-11T20:39:45.930Z,101772.59
2023-02-11T20:42:12.471Z,101780.47
2023-02-11T20:44:39.061Z,101787.50
2023-02-11T20:47:05.566Z,101787.50
2023-02-11T20:49:32.214Z,101792.78
2023-02-11T20:51:58.831Z,101782.25
2023-02-11T20:54:25.817Z,101784.00
2023-02-11T20:56:58.163Z,101789.25
2023-02-11T20:59:26.450Z,101796.28
2023-02-11T21:01:55.494Z,101791.03
2023-02-11T21:07:01.089Z,101789.34
2023-02-11T21:09:31.318Z,101787.56
2023-02-11T21:11:57.847Z,101781.47
2023-02-11T21:14:25.629Z,101790.25
2023-02-11T21:16:52.546Z,101791.16
2023-02-11T21:19:20.350Z,101793.78
2023-02-11T21:21:46.996Z,101798.22
2023-02-11T21:24:13.624Z,101792.06
2023-02-11T21:26:40.167Z,101790.34
2023-02-11T21:29:08.292Z,101790.34
2023-02-11T21:31:36.418Z,101800.88
2023-02-11T21:34:03.515Z,101803.50
2023-02-11T21:36:30.713Z,101804.34
2023-02-11T21:38:57.545Z,101809.66
2023-02-11T21:41:24.867Z,101811.41
2023-02-11T21:43:52.527Z,101802.63
2023-02-11T21:46:20.780Z,101808.78
2023-02-11T21:48:47.675Z,101816.66
2023-02-11T21:51:16.984Z,101823.72
2023-02-11T21:53:43.870Z,101822.78
2023-02-11T21:56:13.643Z,101829.88
2023-02-11T21:58:40.188Z,101831.63
2023-02-11T22:01:29.730Z,101837.03
2023-02-11T22:03:56.414Z,101829.91
2023-02-11T22:06:26.751Z,101832.59
2023-02-11T22:08:54.786Z,101829.94
2023-02-11T22:11:21.397Z,101841.41
2023-02-11T22:13:48.029Z,101848.41
2023-02-11T22:16:16.662Z,101844.09
2023-02-11T22:18:46.993Z,101852.88
2023-02-11T22:21:19.037Z,101851.19
2023-02-11T22:23:46.162Z,101863.38
2023-02-11T22:26:31.540Z,101860.78
2023-02-11T22:28:58.094Z,101855.50
2023-02-11T22:31:34.997Z,101860.84
2023-02-11T22:34:03.083Z,101864.31
2023-02-11T22:36:32.718Z,101852.06
2023-02-11T22:39:05.833Z,101860.91
2023-02-11T22:41:32.715Z,101867.91
2023-02-11T22:43:59.307Z,101866.09
2023-02-11T22:46:26.279Z,101867.94
2023-02-11T22:48:53.207Z,101874.16
2023-02-11T22:51:26.145Z,101882.09
2023-02-11T22:53:58.539Z,101870.69
2023-02-11T22:56:26.514Z,101875.13
2023-02-11T22:58:53.722Z,101871.63
2023-02-11T23:01:20.665Z,101869.91
2023-02-11T23:03:47.346Z,101870.81
2023-02-11T23:06:14.143Z,101876.09
2023-02-11T23:08:42.808Z,101878.72
2023-02-11T23:11:13.060Z,101880.56
2023-02-11T23:13:41.334Z,101886.69
2023-02-11T23:16:11.113Z,101884.97
2023-02-11T23:18:42.839Z,101889.38
2023-02-11T23:21:21.278Z,101892.06
2023-02-11T23:23:49.501Z,101889.44
2023-02-11T23:26:17.862Z,101891.22
2023-02-11T23:28:46.107Z,101900.88
2023-02-11T23:31:18.611Z,101904.41
2023-02-11T23:33:46.138Z,101905.28
2023-02-11T23:36:13.501Z,101899.16
2023-02-11T23:38:40.073Z,101907.06
2023-02-11T23:41:06.642Z,101911.47
2023-02-11T23:43:33.218Z,101908.84
2023-02-11T23:45:59.872Z,101906.22
2023-02-11T23:48:26.835Z,101905.34
2023-02-11T23:50:53.425Z,101910.59
2023-02-11T23:53:19.852Z,101907.97
2023-02-11T23:55:47.008Z,101907.97
2023-02-11T23:58:14.456Z,101907.97
